createdAt,value
2023-01-03T00:01:58.866Z,100100.75
2023-01-03T00:04:25.954Z,100076.53
2023-01-03T00:06:54.301Z,100085.53
2023-01-03T00:09:24.860Z,100087.00
2023-01-03T00:12:13.252Z,100092.00
2023-01-03T00:14:43.825Z,100089.75
2023-01-03T00:17:12.993Z,100091.84
2023-01-03T00:19:44.768Z,100101.94
2023-01-03T00:22:14.237Z,100095.41
2023-01-03T00:24:42.146Z,100097.47
2023-01-03T00:27:10.400Z,100099.13
2023-01-03T00:29:39.765Z,100109.69
2023-01-03T00:32:07.541Z,100117.28
2023-01-03T00:34:36.266Z,100120.59
2023-01-03T00:37:05.360Z,100120.84
2023-01-03T00:39:33.894Z,100145.28
2023-01-03T00:42:03.182Z,100131.53
2023-01-03T00:44:31.621Z,100129.72
2023-01-03T00:47:06.080Z,100136.81
2023-01-03T00:49:34.609Z,100144.84
2023-01-03T00:52:02.096Z,100142.75
2023-01-03T00:54:29.761Z,100166.59
2023-01-03T00:56:57.040Z,100160.38
2023-01-03T00:59:24.400Z,100162.84
2023-01-03T01:01:54.945Z,100171.53
2023-01-03T01:04:30.919Z,100180.00
2023-01-03T01:07:01.492Z,100180.06
2023-01-03T01:09:33.796Z,100200.91
2023-01-03T01:12:01.517Z,100194.63
2023-01-03T01:14:30.593Z,100209.66
2023-01-03T01:17:00.890Z,100214.41
2023-01-03T01:19:33.932Z,100216.78
2023-01-03T01:22:01.958Z,100240.56
2023-01-03T01:24:35.474Z,100234.22
2023-01-03T01:27:03.055Z,100228.31
2023-01-03T01:29:38.514Z,100244.94
2023-01-03T01:32:06.720Z,100242.16
2023-01-03T01:34:34.086Z,100249.44
2023-01-03T01:37:03.432Z,100254.53
2023-01-03T01:39:32.343Z,100271.53
2023-01-03T01:42:22.312Z,100261.34
2023-01-03T01:45:04.322Z,100272.41
2023-01-03T01:47:41.634Z,100271.97
2023-01-03T01:50:40.075Z,100274.81
2023-01-03T01:53:15.647Z,100272.91
2023-01-03T01:56:13.717Z,100264.63
2023-01-03T01:58:43.736Z,100273.09
2023-01-03T02:04:03.395Z,100284.00
2023-01-03T02:06:33.538Z,100285.19
2023-01-03T02:09:00.828Z,100276.34
2023-01-03T02:11:47.079Z,100274.69
2023-01-03T02:14:32.359Z,100284.28
2023-01-03T02:17:14.773Z,100280.94
2023-01-03T02:20:06.917Z,100281.91
2023-01-03T02:22:46.500Z,100284.88
2023-01-03T02:25:38.292Z,100301.31
2023-01-03T02:28:30.217Z,100310.00
2023-01-03T02:31:10.462Z,100312.69
2023-01-03T02:34:16.980Z,100310.38
2023-01-03T02:36:59.574Z,100321.84
2023-01-03T02:39:44.211Z,100320.28
2023-01-03T02:42:40.980Z,100318.91
2023-01-03T02:45:16.832Z,100338.28
2023-01-03T02:47:58.108Z,100333.28
2023-01-03T02:50:39.748Z,100336.81
2023-01-03T02:53:12.673Z,100351.19
2023-01-03T02:55:42.505Z,100343.47
2023-01-03T02:58:16.077Z,100357.66
2023-01-03T03:00:50.874Z,100364.19
2023-01-03T03:03:23.724Z,100355.28
2023-01-03T03:06:03.251Z,100359.56
2023-01-03T03:08:30.822Z,100352.16
2023-01-03T03:11:16.993Z,100345.63
2023-01-03T03:13:53.543Z,100345.09
2023-01-03T03:16:50.388Z,100343.56
2023-01-03T03:19:44.572Z,100341.75
2023-01-03T03:22:46.393Z,100359.94
2023-01-03T03:25:27.867Z,100372.78
2023-01-03T03:28:19.509Z,100378.97
2023-01-03T03:30:50.165Z,100369.88
2023-01-03T03:33:20.709Z,100377.94
2023-01-03T03:35:58.959Z,100371.44
2023-01-03T03:38:35.460Z,100375.72
2023-01-03T03:41:26.074Z,100382.84
2023-01-03T03:44:28.603Z,100385.06
2023-01-03T03:47:07.204Z,100387.56
2023-01-03T03:49:38.451Z,100397.09
2023-01-03T03:52:26.511Z,100401.75
2023-01-03T03:55:08.487Z,100405.44
2023-01-03T03:57:41.492Z,100402.38
2023-01-03T04:00:15.792Z,100397.22
2023-01-03T04:02:47.211Z,100414.13
2023-01-03T04:05:18.159Z,100409.84
2023-01-03T04:07:47.105Z,100409.06
2023-01-03T04:10:20.482Z,100419.50
2023-01-03T04:12:52.173Z,100417.75
2023-01-03T04:15:20.169Z,100413.09
2023-01-03T04:17:47.468Z,100415.84
2023-01-03T04:20:15.418Z,100418.50
2023-01-03T04:22:42.876Z,100424.63
2023-01-03T04:25:11.609Z,100432.38
2023-01-03T04:27:38.808Z,100442.72
2023-01-03T04:30:07.396Z,100428.38
2023-01-03T04:32:34.856Z,100432.34
2023-01-03T04:35:02.289Z,100436.84
2023-01-03T04:37:29.782Z,100437.72
2023-01-03T04:39:57.193Z,100441.91
2023-01-03T04:42:43.069Z,100445.28
2023-01-03T04:45:11.402Z,100445.84
2023-01-03T04:47:38.494Z,100432.69
2023-01-03T04:50:06.292Z,100438.97
2023-01-03T04:52:33.451Z,100452.97
2023-01-03T04:55:01.873Z,100455.53
2023-01-03T04:57:29.341Z,100463.63
2023-01-03T04:59:56.801Z,100457.44
2023-01-03T05:02:23.888Z,100466.28
2023-01-03T05:04:51.245Z,100461.25
2023-01-03T05:07:19.275Z,100477.94
2023-01-03T05:09:46.758Z,100481.03
2023-01-03T05:12:15.404Z,100482.22
2023-01-03T05:14:42.735Z,100487.72
2023-01-03T05:17:10.338Z,100490.25
2023-01-03T05:20:02.466Z,100502.53
2023-01-03T05:22:48.036Z,100499.03
2023-01-03T05:25:34.408Z,100505.28
2023-01-03T05:28:03.796Z,100503.19
2023-01-03T05:30:30.993Z,100506.97
2023-01-03T05:32:58.767Z,100513.44
2023-01-03T05:35:26.468Z,100520.06
2023-01-03T05:37:54.628Z,100521.91
2023-01-03T05:40:22.086Z,100529.78
2023-01-03T05:42:50.273Z,100531.44
2023-01-03T05:45:17.834Z,100529.78
2023-01-03T05:47:45.200Z,100533.31
2023-01-03T05:50:12.615Z,100537.69
2023-01-03T05:52:40.033Z,100536.94
2023-01-03T05:55:07.827Z,100538.03
2023-01-03T05:57:36.996Z,100547.50
2023-01-03T06:00:05.902Z,100559.03
2023-01-03T06:02:33.019Z,100549.44
2023-01-03T06:05:00.445Z,100545.88
2023-01-03T06:07:30.431Z,100552.97
2023-01-03T06:09:57.955Z,100555.97
2023-01-03T06:12:27.777Z,100556.97
2023-01-03T06:14:55.999Z,100555.31
2023-01-03T06:17:41.780Z,100564.13
2023-01-03T06:20:11.280Z,100559.88
2023-01-03T06:22:38.888Z,100556.25
2023-01-03T06:25:07.436Z,100571.22
2023-01-03T06:27:36.339Z,100566.97
2023-01-03T06:30:03.908Z,100560.81
2023-01-03T06:32:31.396Z,100568.59
2023-01-03T06:34:59.623Z,100569.69
2023-01-03T06:37:26.999Z,100571.03
2023-01-03T06:39:54.454Z,100569.88
2023-01-03T06:42:40.015Z,100572.75
2023-01-03T06:45:33.169Z,100586.34
2023-01-03T06:48:25.879Z,100587.25
2023-01-03T06:51:11.923Z,100586.56
2023-01-03T06:53:43.040Z,100596.34
2023-01-03T06:56:10.763Z,100594.53
2023-01-03T06:58:37.864Z,100605.94
2023-01-03T07:01:07.746Z,100604.97
2023-01-03T07:03:35.397Z,100611.91
2023-01-03T07:06:02.989Z,100610.91
2023-01-03T07:08:32.257Z,100616.06
2023-01-03T07:11:00.306Z,100619.78
2023-01-03T07:13:47.345Z,100614.59
2023-01-03T07:16:19.198Z,100621.81
2023-01-03T07:18:59.579Z,100623.59
2023-01-03T07:21:29.130Z,100634.28
2023-01-03T07:23:57.944Z,100637.66
2023-01-03T07:26:25.846Z,100638.59
2023-01-03T07:28:53.684Z,100640.25
2023-01-03T07:31:21.154Z,100644.38
2023-01-03T07:33:48.434Z,100640.69
2023-01-03T07:36:17.155Z,100650.13
2023-01-03T07:38:45.854Z,100654.25
2023-01-03T07:41:14.573Z,100655.91
2023-01-03T07:43:45.286Z,100656.06
2023-01-03T07:46:22.439Z,100660.53
2023-01-03T07:48:57.363Z,100661.41
2023-01-03T07:51:33.485Z,100664.91
2023-01-03T07:54:02.984Z,100664.13
2023-01-03T07:56:40.065Z,100667.59
2023-01-03T07:59:07.369Z,100678.22
2023-01-03T08:01:34.678Z,100672.91
2023-01-03T08:04:01.971Z,100688.31
2023-01-03T08:06:29.272Z,100682.72
2023-01-03T08:09:15.014Z,100686.28
2023-01-03T08:12:00.851Z,100683.63
2023-01-03T08:14:40.267Z,100680.75
2023-01-03T08:17:08.887Z,100679.91
2023-01-03T08:19:45.164Z,100685.19
2023-01-03T08:22:12.909Z,100692.22
2023-01-03T08:24:39.973Z,100685.94
2023-01-03T08:27:07.330Z,100692.84
2023-01-03T08:29:34.397Z,100699.34
2023-01-03T08:32:04.127Z,100693.53
2023-01-03T08:34:36.602Z,100690.13
2023-01-03T08:37:10.544Z,100693.47
2023-01-03T08:39:44.384Z,100696.97
2023-01-03T08:42:16.066Z,100709.34
2023-01-03T08:44:45.437Z,100699.53
2023-01-03T08:47:15.714Z,100700.72
2023-01-03T08:49:46.235Z,100698.06
2023-01-03T08:52:13.290Z,100700.72
2023-01-03T08:54:41.657Z,100704.09
2023-01-03T08:57:08.991Z,100701.34
2023-01-03T08:59:37.154Z,100709.41
2023-01-03T09:02:04.708Z,100712.16
2023-01-03T09:04:31.999Z,100707.63
2023-01-03T09:06:59.489Z,100714.56
2023-01-03T09:09:26.820Z,100717.94
2023-01-03T09:11:54.288Z,100718.13
2023-01-03T09:14:21.490Z,100722.47
2023-01-03T09:16:49.646Z,100731.47
2023-01-03T09:19:17.059Z,100726.44
2023-01-03T09:21:44.131Z,100727.19
2023-01-03T09:24:11.208Z,100732.28
2023-01-03T09:26:41.545Z,100736.38
2023-01-03T09:29:08.713Z,100738.94
2023-01-03T09:31:40.049Z,100736.97
2023-01-03T09:34:08.809Z,100738.50
2023-01-03T09:36:38.838Z,100733.22
2023-01-03T09:39:06.720Z,100734.78
2023-01-03T09:41:35.133Z,100726.00
2023-01-03T09:44:09.145Z,100733.84
2023-01-03T09:46:37.569Z,100737.25
2023-01-03T09:49:08.590Z,100737.53
2023-01-03T09:51:59.103Z,100731.81
2023-01-03T09:54:53.889Z,100724.00
2023-01-03T09:57:54.878Z,100733.06
2023-01-03T10:00:54.152Z,100737.34
2023-01-03T10:03:50.826Z,100728.53
2023-01-03T10:06:46.634Z,100726.69
2023-01-03T10:09:18.077Z,100734.69
2023-01-03T10:12:20.516Z,100723.75
2023-01-03T10:14:50.728Z,100727.19
2023-01-03T10:17:35.973Z,100716.34
2023-01-03T10:20:12.995Z,100715.22
2023-01-03T10:22:41.178Z,100718.88
2023-01-03T10:25:21.843Z,100719.81
2023-01-03T10:27:54.952Z,100716.19
2023-01-03T10:30:37.400Z,100728.00
2023-01-03T10:33:20.352Z,100720.81
2023-01-03T10:35:47.467Z,100726.69
2023-01-03T10:38:17.112Z,100732.66
2023-01-03T10:40:50.823Z,100721.47
2023-01-03T10:43:19.509Z,100720.22
2023-01-03T10:46:00.519Z,100721.59
2023-01-03T10:49:17.064Z,100725.56
2023-01-03T10:51:43.797Z,100730.03
2023-01-03T10:54:51.517Z,100721.13
2023-01-03T10:57:46.806Z,100734.19
2023-01-03T11:00:36.397Z,100712.84
2023-01-03T11:03:13.368Z,100716.81
2023-01-03T11:05:43.367Z,100722.22
2023-01-03T11:08:20.051Z,100705.97
2023-01-03T11:10:53.872Z,100709.94
2023-01-03T11:13:30.606Z,100716.44
2023-01-03T11:16:04.251Z,100716.13
2023-01-03T11:18:33.326Z,100731.41
2023-01-03T11:21:35.884Z,100726.47
2023-01-03T11:24:42.682Z,100725.47
2023-01-03T11:27:20.036Z,100719.09
2023-01-03T11:29:53.352Z,100715.47
2023-01-03T11:32:39.549Z,100710.47
2023-01-03T11:35:25.682Z,100707.66
2023-01-03T11:38:24.548Z,100711.91
2023-01-03T11:41:04.040Z,100707.41
2023-01-03T11:43:54.878Z,100703.69
2023-01-03T11:46:38.646Z,100715.66
2023-01-03T11:49:19.253Z,100708.72
2023-01-03T11:52:22.037Z,100700.63
2023-01-03T11:55:15.907Z,100706.25
2023-01-03T11:58:02.655Z,100697.81
2023-01-03T12:00:46.806Z,100702.50
2023-01-03T12:03:41.596Z,100703.53
2023-01-03T12:06:29.164Z,100691.00
2023-01-03T12:08:56.777Z,100698.75
2023-01-03T12:11:50.127Z,100692.75
2023-01-03T12:14:33.268Z,100701.22
2023-01-03T12:17:26.929Z,100697.78
2023-01-03T12:20:11.335Z,100699.41
2023-01-03T12:22:44.523Z,100699.59
2023-01-03T12:25:23.243Z,100707.13
2023-01-03T12:28:01.272Z,100703.97
2023-01-03T12:30:50.460Z,100702.13
2023-01-03T12:33:48.967Z,100704.66
2023-01-03T12:36:41.783Z,100703.16
2023-01-03T12:39:33.671Z,100709.84
2023-01-03T12:42:16.796Z,100710.03
2023-01-03T12:44:50.082Z,100715.44
2023-01-03T12:47:30.094Z,100693.50
2023-01-03T12:50:07.788Z,100698.66
2023-01-03T12:52:36.210Z,100706.59
2023-01-03T12:55:15.234Z,100697.81
2023-01-03T12:58:05.177Z,100703.00
2023-01-03T13:00:53.792Z,100692.03
2023-01-03T13:03:21.447Z,100689.97
2023-01-03T13:06:03.294Z,100690.50
2023-01-03T13:08:33.925Z,100694.81
2023-01-03T13:11:16.932Z,100691.22
2023-01-03T13:14:16.210Z,100689.09
2023-01-03T13:16:50.432Z,100689.22
2023-01-03T13:19:23.056Z,100680.94
2023-01-03T13:21:52.975Z,100692.78
2023-01-03T13:24:45.421Z,100692.78
2023-01-03T13:27:22.994Z,100692.94
2023-01-03T13:29:53.604Z,100689.00
2023-01-03T13:32:23.689Z,100683.72
2023-01-03T13:34:57.226Z,100691.63
2023-01-03T13:37:29.812Z,100692.53
2023-01-03T13:40:39.256Z,100698.03
2023-01-03T13:43:11.841Z,100702.06
2023-01-03T13:45:39.380Z,100697.22
2023-01-03T13:48:20.915Z,100702.13
2023-01-03T13:51:16.889Z,100695.31
2023-01-03T13:54:05.575Z,100702.06
2023-01-03T13:56:59.268Z,100706.19
2023-01-03T13:59:44.186Z,100708.56
2023-01-03T14:02:26.375Z,100703.63
2023-01-03T14:05:19.043Z,100707.88
2023-01-03T14:08:13.556Z,100705.28
2023-01-03T14:11:02.482Z,100714.13
2023-01-03T14:14:06.926Z,100706.09
2023-01-03T14:16:53.294Z,100702.28
2023-01-03T14:19:30.492Z,100707.94
2023-01-03T14:22:27.956Z,100704.75
2023-01-03T14:24:58.753Z,100707.81
2023-01-03T14:27:35.665Z,100715.16
2023-01-03T14:30:02.835Z,100714.56
2023-01-03T14:32:37.643Z,100719.03
2023-01-03T14:35:07.060Z,100721.88
2023-01-03T14:37:37.213Z,100724.66
2023-01-03T14:40:07.775Z,100722.13
2023-01-03T14:42:34.914Z,100727.63
2023-01-03T14:45:06.552Z,100737.50
2023-01-03T14:47:39.398Z,100732.63
2023-01-03T14:50:14.714Z,100736.00
2023-01-03T14:52:46.132Z,100740.34
2023-01-03T14:55:20.637Z,100750.38
2023-01-03T14:57:49.985Z,100741.44
2023-01-03T15:00:25.370Z,100746.75
2023-01-03T15:02:58.131Z,100755.66
2023-01-03T15:05:35.471Z,100749.81
2023-01-03T15:08:21.013Z,100748.25
2023-01-03T15:11:00.713Z,100759.69
2023-01-03T15:13:50.778Z,100757.06
2023-01-03T15:16:27.221Z,100756.50
2023-01-03T15:19:13.013Z,100759.13
2023-01-03T15:21:41.907Z,100768.66
2023-01-03T15:24:16.954Z,100766.16
2023-01-03T15:26:47.358Z,100766.09
2023-01-03T15:29:15.787Z,100772.97
2023-01-03T15:31:55.396Z,100771.94
2023-01-03T15:34:35.001Z,100770.25
2023-01-03T15:37:20.472Z,100770.34
2023-01-03T15:39:53.222Z,100774.78
2023-01-03T15:42:45.274Z,100768.63
2023-01-03T15:45:27.492Z,100774.03
2023-01-03T15:47:58.061Z,100778.72
2023-01-03T15:50:39.491Z,100787.44
2023-01-03T15:53:21.616Z,100788.34
2023-01-03T15:55:52.632Z,100791.94
2023-01-03T15:58:20.007Z,100788.56
2023-01-03T16:00:49.016Z,100786.88
2023-01-03T16:03:18.162Z,100796.47
2023-01-03T16:05:45.806Z,100785.19
2023-01-03T16:08:33.977Z,100802.72
2023-01-03T16:11:05.853Z,100799.19
2023-01-03T16:13:40.604Z,100798.34
2023-01-03T16:16:10.169Z,100807.94
2023-01-03T16:18:47.421Z,100803.50
2023-01-03T16:21:15.701Z,100808.78
2023-01-03T16:23:43.282Z,100809.66
2023-01-03T16:26:11.528Z,100813.13
2023-01-03T16:28:39.169Z,100813.84
2023-01-03T16:31:32.177Z,100814.69
2023-01-03T16:34:00.168Z,100827.09
2023-01-03T16:36:37.345Z,100827.28
2023-01-03T16:39:10.425Z,100829.88
2023-01-03T16:41:38.873Z,100829.03
2023-01-03T16:44:06.663Z,100827.34
2023-01-03T16:46:38.102Z,100821.22
2023-01-03T16:49:06.220Z,100829.97
2023-01-03T16:51:38.005Z,100826.47
2023-01-03T16:54:08.625Z,100823.88
2023-01-03T16:56:37.965Z,100823.03
2023-01-03T16:59:10.599Z,100825.63
2023-01-03T17:01:38.097Z,100829.13
2023-01-03T17:04:06.710Z,100829.16
2023-01-03T17:06:38.617Z,100834.41
2023-01-03T17:09:16.221Z,100829.09
2023-01-03T17:11:44.759Z,100828.91
2023-01-03T17:14:23.099Z,100834.38
2023-01-03T17:16:51.007Z,100836.97
2023-01-03T17:20:01.553Z,100834.34
2023-01-03T17:22:14.206Z,100835.91
2023-01-03T17:24:43.311Z,100836.91
2023-01-03T17:27:31.139Z,100827.41
2023-01-03T17:30:04.791Z,100841.44
2023-01-03T17:32:34.250Z,100842.34
2023-01-03T17:38:24.709Z,100844.94
2023-01-03T17:40:48.883Z,100844.97
2023-01-03T17:43:22.261Z,100850.25
2023-01-03T17:46:16.113Z,100855.53
2023-01-03T17:49:06.477Z,100858.16
2023-01-03T17:51:33.940Z,100851.97
2023-01-03T17:54:02.324Z,100854.59
2023-01-03T17:56:32.118Z,100859.03
2023-01-03T17:59:00.107Z,100866.06
2023-01-03T18:01:29.026Z,100862.56
2023-01-03T18:03:56.295Z,100867.81
2023-01-03T18:06:26.071Z,100879.16
2023-01-03T18:08:58.359Z,100880.03
2023-01-03T18:11:27.465Z,100879.16
2023-01-03T18:13:54.698Z,100882.69
2023-01-03T18:16:24.307Z,100880.00
2023-01-03T18:18:51.757Z,100880.03
2023-01-03T18:21:25.472Z,100879.19
2023-01-03T18:24:11.275Z,100886.19
2023-01-03T18:26:45.461Z,100886.19
2023-01-03T18:29:15.791Z,100888.78
2023-01-03T18:31:44.266Z,100888.78
2023-01-03T18:34:15.404Z,100894.88
2023-01-03T18:36:47.617Z,100894.03
2023-01-03T18:39:19.020Z,100894.00
2023-01-03T18:41:46.447Z,100892.28
2023-01-03T18:44:20.716Z,100899.25
2023-01-03T18:46:48.851Z,100890.47
2023-01-03T18:49:17.097Z,100892.22
2023-01-03T18:51:45.112Z,100886.94
2023-01-03T18:54:18.773Z,100894.78
2023-01-03T18:56:46.796Z,100901.72
2023-01-03T18:59:21.661Z,100900.03
2023-01-03T19:01:50.153Z,100894.69
2023-01-03T19:04:19.820Z,100907.63
2023-01-03T19:06:51.145Z,100894.53
2023-01-03T19:09:23.000Z,100900.59
2023-01-03T19:11:57.466Z,100902.22
2023-01-03T19:14:24.991Z,100902.34
2023-01-03T19:16:54.417Z,100903.22
2023-01-03T19:19:21.924Z,100905.00
2023-01-03T19:21:50.357Z,100899.78
2023-01-03T19:24:39.041Z,100904.88
2023-01-03T19:27:22.451Z,100896.81
2023-01-03T19:29:51.421Z,100901.81
2023-01-03T19:32:28.916Z,100902.69
2023-01-03T19:34:58.001Z,100895.06
2023-01-03T19:37:28.311Z,100898.56
2023-01-03T19:39:57.759Z,100903.38
2023-01-03T19:42:43.991Z,100899.66
2023-01-03T19:45:33.659Z,100899.66
2023-01-03T19:48:15.911Z,100896.50
2023-01-03T19:50:43.929Z,100899.94
2023-01-03T19:53:13.656Z,100890.34
2023-01-03T19:55:44.762Z,100899.81
2023-01-03T19:58:27.653Z,100900.66
2023-01-03T20:00:58.268Z,100902.22
2023-01-03T20:03:40.166Z,100911.69
2023-01-03T20:06:12.251Z,100905.81
2023-01-03T20:08:40.118Z,100909.31
2023-01-03T20:11:23.457Z,100911.81
2023-01-03T20:13:54.423Z,100917.81
2023-01-03T20:16:24.579Z,100911.59
2023-01-03T20:18:52.401Z,100906.34
2023-01-03T20:21:24.180Z,100919.34
2023-01-03T20:23:59.552Z,100919.09
2023-01-03T20:26:35.320Z,100914.66
2023-01-03T20:29:03.704Z,100902.53
2023-01-03T20:31:32.098Z,100903.50
2023-01-03T20:34:01.775Z,100913.03
2023-01-03T20:36:41.194Z,100911.19
2023-01-03T20:39:25.367Z,100914.41
2023-01-03T20:41:54.201Z,100902.22
2023-01-03T20:44:24.295Z,100917.56
2023-01-03T20:46:51.767Z,100921.03
2023-01-03T20:49:26.868Z,100907.00
2023-01-03T20:51:54.937Z,100909.66
2023-01-03T20:54:22.995Z,100905.25
2023-01-03T20:56:56.769Z,100905.19
2023-01-03T20:59:25.091Z,100907.63
2023-01-03T21:01:52.244Z,100913.59
2023-01-03T21:04:19.578Z,100900.09
2023-01-03T21:06:49.137Z,100903.91
2023-01-03T21:09:16.476Z,100901.66
2023-01-03T21:11:44.141Z,100910.09
2023-01-03T21:14:15.010Z,100904.56
2023-01-03T21:16:46.272Z,100913.25
2023-01-03T21:19:24.677Z,100910.72
2023-01-03T21:22:01.696Z,100909.22
2023-01-03T21:24:34.403Z,100905.50
2023-01-03T21:27:06.973Z,100920.13
2023-01-03T21:29:34.283Z,100923.56
2023-01-03T21:32:03.931Z,100919.22
2023-01-03T21:34:33.130Z,100924.41
2023-01-03T21:37:00.685Z,100917.66
2023-01-03T21:39:29.194Z,100922.03
2023-01-03T21:42:17.656Z,100927.22
2023-01-03T21:44:47.250Z,100923.56
2023-01-03T21:47:14.561Z,100928.50
2023-01-03T21:49:42.117Z,100930.34
2023-01-03T21:52:10.793Z,100925.22
2023-01-03T21:54:39.009Z,100919.13
2023-01-03T21:57:06.473Z,100912.34
2023-01-03T21:59:34.205Z,100909.22
2023-01-03T22:02:19.829Z,100919.22
2023-01-03T22:04:47.245Z,100925.34
2023-01-03T22:07:14.700Z,100925.84
2023-01-03T22:10:00.304Z,100928.84
2023-01-03T22:12:29.577Z,100936.47
2023-01-03T22:14:57.012Z,100928.91
2023-01-03T22:17:24.488Z,100931.09
2023-01-03T22:19:51.888Z,100932.72
2023-01-03T22:22:19.466Z,100930.22
2023-01-03T22:24:46.929Z,100936.81
2023-01-03T22:27:14.170Z,100933.31
2023-01-03T22:29:42.444Z,100934.28
2023-01-03T22:32:10.717Z,100927.19
2023-01-03T22:34:38.865Z,100928.16
2023-01-03T22:37:07.565Z,100931.09
2023-01-03T22:39:34.972Z,100925.22
2023-01-03T22:42:02.327Z,100928.50
2023-01-03T22:44:30.787Z,100932.59
2023-01-03T22:46:58.561Z,100924.00
2023-01-03T22:49:25.726Z,100914.34
2023-01-03T22:52:06.420Z,100906.44
2023-01-03T22:54:35.585Z,100906.97
2023-01-03T22:57:03.590Z,100913.41
2023-01-03T22:59:30.882Z,100905.94
2023-01-03T23:01:58.920Z,100924.16
2023-01-03T23:04:28.104Z,100918.19
2023-01-03T23:06:56.386Z,100919.19
2023-01-03T23:09:25.038Z,100930.22
2023-01-03T23:12:11.751Z,100923.34
2023-01-03T23:14:39.252Z,100921.41
2023-01-03T23:17:25.225Z,100919.84
2023-01-03T23:19:52.662Z,100916.88
2023-01-03T23:22:20.134Z,100911.31
2023-01-03T23:24:47.512Z,100913.34
2023-01-03T23:27:15.119Z,100919.25
2023-01-03T23:29:43.467Z,100915.59
2023-01-03T23:32:10.957Z,100917.38
2023-01-03T23:34:38.457Z,100913.72
2023-01-03T23:37:05.812Z,100918.00
2023-01-03T23:39:33.529Z,100917.31
2023-01-03T23:42:01.793Z,100916.88
2023-01-03T23:44:29.950Z,100912.72
2023-01-03T23:46:58.258Z,100912.56
2023-01-03T23:49:25.801Z,100915.03
2023-01-03T23:51:53.254Z,100906.31
2023-01-03T23:54:20.845Z,100913.06
2023-01-03T23:56:48.624Z,100908.81
2023-01-03T23:59:16.171Z,100908.38
